sensor_id;sensor_type;location;lat;lon;timestamp;P1;durP1;ratioP1;P2;durP2;ratioP2
66270;SDS011;53063;39.614;8.814;2023-04-03T00:00:43;2.55;;;0.88;;
66270;SDS011;53063;39.614;8.814;2023-04-03T00:03:09;6.65;;;1.05;;
66270;SDS011;53063;39.614;8.814;2023-04-03T00:05:35;4.00;;;1.20;;
66270;SDS011;53063;39.614;8.814;2023-04-03T00:08:01;4.50;;;0.95;;
66270;SDS011;53063;39.614;8.814;2023-04-03T00:10:27;2.67;;;0.93;;
66270;SDS011;53063;39.614;8.814;2023-04-03T00:12:53;7.30;;;1.05;;
66270;SDS011;53063;39.614;8.814;2023-04-03T00:15:20;10.68;;;1.42;;
66270;SDS011;53063;39.614;8.814;2023-04-03T00:17:45;4.00;;;0.90;;
66270;SDS011;53063;39.614;8.814;2023-04-03T00:20:11;1.83;;;0.70;;
66270;SDS011;53063;39.614;8.814;2023-04-03T00:22:37;3.00;;;0.73;;
66270;SDS011;53063;39.614;8.814;2023-04-03T00:25:03;9.10;;;1.52;;
66270;SDS011;53063;39.614;8.814;2023-04-03T00:27:30;3.25;;;0.90;;
66270;SDS011;53063;39.614;8.814;2023-04-03T00:29:55;7.72;;;1.35;;
66270;SDS011;53063;39.614;8.814;2023-04-03T00:32:21;7.72;;;1.20;;
66270;SDS011;53063;39.614;8.814;2023-04-03T00:34:48;5.97;;;1.20;;
66270;SDS011;53063;39.614;8.814;2023-04-03T00:37:14;2.17;;;1.05;;
66270;SDS011;53063;39.614;8.814;2023-04-03T00:39:40;10.25;;;1.48;;
66270;SDS011;53063;39.614;8.814;2023-04-03T00:42:06;9.95;;;1.60;;
66270;SDS011;53063;39.614;8.814;2023-04-03T00:47:01;5.63;;;1.25;;
66270;SDS011;53063;39.614;8.814;2023-04-03T00:49:30;6.18;;;1.42;;
66270;SDS011;53063;39.614;8.814;2023-04-03T00:51:57;8.70;;;1.10;;
66270;SDS011;53063;39.614;8.814;2023-04-03T00:54:24;5.65;;;1.05;;
66270;SDS011;53063;39.614;8.814;2023-04-03T00:56:51;8.10;;;1.10;;
66270;SDS011;53063;39.614;8.814;2023-04-03T00:59:27;6.50;;;1.42;;
66270;SDS011;53063;39.614;8.814;2023-04-03T01:01:57;2.67;;;0.90;;
66270;SDS011;53063;39.614;8.814;2023-04-03T01:04:28;5.68;;;1.55;;
66270;SDS011;53063;39.614;8.814;2023-04-03T01:06:57;7.68;;;1.83;;
66270;SDS011;53063;39.614;8.814;2023-04-03T01:09:33;4.22;;;1.10;;
66270;SDS011;53063;39.614;8.814;2023-04-03T01:14:56;2.65;;;0.98;;
66270;SDS011;53063;39.614;8.814;2023-04-03T01:17:35;3.00;;;1.00;;
66270;SDS011;53063;39.614;8.814;2023-04-03T01:28:13;5.53;;;2.05;;
66270;SDS011;53063;39.614;8.814;2023-04-03T01:31:28;9.40;;;1.60;;
66270;SDS011;53063;39.614;8.814;2023-04-03T01:33:30;6.70;;;1.10;;
66270;SDS011;53063;39.614;8.814;2023-04-03T01:35:56;4.68;;;1.20;;
66270;SDS011;53063;39.614;8.814;2023-04-03T01:38:23;11.30;;;1.25;;
66270;SDS011;53063;39.614;8.814;2023-04-03T01:40:49;5.43;;;1.20;;
66270;SDS011;53063;39.614;8.814;2023-04-03T01:43:16;4.82;;;1.00;;
66270;SDS011;53063;39.614;8.814;2023-04-03T01:45:42;5.95;;;1.27;;
66270;SDS011;53063;39.614;8.814;2023-04-03T01:48:08;4.90;;;0.93;;
66270;SDS011;53063;39.614;8.814;2023-04-03T01:50:34;4.82;;;1.20;;
66270;SDS011;53063;39.614;8.814;2023-04-03T01:53:00;6.50;;;1.40;;
66270;SDS011;53063;39.614;8.814;2023-04-03T01:55:26;8.05;;;1.10;;
66270;SDS011;53063;39.614;8.814;2023-04-03T01:57:52;5.43;;;1.27;;
66270;SDS011;53063;39.614;8.814;2023-04-03T02:00:19;4.05;;;0.98;;
66270;SDS011;53063;39.614;8.814;2023-04-03T02:02:45;4.53;;;1.08;;
66270;SDS011;53063;39.614;8.814;2023-04-03T02:05:12;5.57;;;1.48;;
66270;SDS011;53063;39.614;8.814;2023-04-03T02:07:38;2.65;;;1.45;;
66270;SDS011;53063;39.614;8.814;2023-04-03T02:10:04;7.85;;;1.00;;
66270;SDS011;53063;39.614;8.814;2023-04-03T02:12:30;5.47;;;1.05;;
66270;SDS011;53063;39.614;8.814;2023-04-03T02:14:57;7.22;;;1.15;;
66270;SDS011;53063;39.614;8.814;2023-04-03T02:17:23;6.03;;;1.15;;
66270;SDS011;53063;39.614;8.814;2023-04-03T02:19:49;9.80;;;2.10;;
66270;SDS011;53063;39.614;8.814;2023-04-03T02:22:16;7.85;;;1.63;;
66270;SDS011;53063;39.614;8.814;2023-04-03T02:24:42;5.22;;;0.98;;
66270;SDS011;53063;39.614;8.814;2023-04-03T02:27:08;8.57;;;1.35;;
66270;SDS011;53063;39.614;8.814;2023-04-03T02:29:34;5.85;;;1.30;;
66270;SDS011;53063;39.614;8.814;2023-04-03T02:32:00;8.43;;;1.85;;
66270;SDS011;53063;39.614;8.814;2023-04-03T02:34:27;3.78;;;1.27;;
66270;SDS011;53063;39.614;8.814;2023-04-03T02:36:56;4.47;;;1.00;;
66270;SDS011;53063;39.614;8.814;2023-04-03T02:39:22;7.68;;;1.15;;
66270;SDS011;53063;39.614;8.814;2023-04-03T02:41:48;5.82;;;1.00;;
66270;SDS011;53063;39.614;8.814;2023-04-03T02:44:20;5.93;;;1.02;;
66270;SDS011;53063;39.614;8.814;2023-04-03T02:46:46;7.47;;;1.35;;
66270;SDS011;53063;39.614;8.814;2023-04-03T02:49:12;5.40;;;0.82;;
66270;SDS011;53063;39.614;8.814;2023-04-03T02:51:38;6.22;;;1.38;;
66270;SDS011;53063;39.614;8.814;2023-04-03T02:54:05;6.43;;;1.23;;
66270;SDS011;53063;39.614;8.814;2023-04-03T02:56:33;6.15;;;1.17;;
66270;SDS011;53063;39.614;8.814;2023-04-03T02:58:59;8.57;;;1.35;;
66270;SDS011;53063;39.614;8.814;2023-04-03T03:01:25;5.90;;;1.33;;
66270;SDS011;53063;39.614;8.814;2023-04-03T03:03:53;6.75;;;1.27;;
66270;SDS011;53063;39.614;8.814;2023-04-03T03:06:19;4.43;;;1.15;;
66270;SDS011;53063;39.614;8.814;2023-04-03T03:08:45;5.28;;;1.40;;
66270;SDS011;53063;39.614;8.814;2023-04-03T03:11:11;6.07;;;1.02;;
66270;SDS011;53063;39.614;8.814;2023-04-03T03:13:37;4.63;;;1.20;;
66270;SDS011;53063;39.614;8.814;2023-04-03T03:16:03;4.75;;;1.20;;
66270;SDS011;53063;39.614;8.814;2023-04-03T03:18:30;7.57;;;1.25;;
66270;SDS011;53063;39.614;8.814;2023-04-03T03:20:57;4.57;;;1.00;;
66270;SDS011;53063;39.614;8.814;2023-04-03T03:23:25;6.25;;;1.05;;
66270;SDS011;53063;39.614;8.814;2023-04-03T03:25:55;5.75;;;0.95;;
66270;SDS011;53063;39.614;8.814;2023-04-03T03:28:23;7.25;;;1.90;;
66270;SDS011;53063;39.614;8.814;2023-04-03T03:30:49;5.97;;;0.80;;
66270;SDS011;53063;39.614;8.814;2023-04-03T03:33:16;4.80;;;1.20;;
66270;SDS011;53063;39.614;8.814;2023-04-03T03:35:43;6.60;;;0.95;;
66270;SDS011;53063;39.614;8.814;2023-04-03T03:38:10;10.45;;;1.23;;
66270;SDS011;53063;39.614;8.814;2023-04-03T03:40:36;4.82;;;1.60;;
66270;SDS011;53063;39.614;8.814;2023-04-03T03:43:03;4.47;;;1.17;;
66270;SDS011;53063;39.614;8.814;2023-04-03T03:45:30;7.03;;;1.25;;
66270;SDS011;53063;39.614;8.814;2023-04-03T03:47:56;6.25;;;1.00;;
66270;SDS011;53063;39.614;8.814;2023-04-03T03:50:22;6.18;;;1.10;;
66270;SDS011;53063;39.614;8.814;2023-04-03T03:52:49;10.50;;;1.60;;
66270;SDS011;53063;39.614;8.814;2023-04-03T03:55:16;5.55;;;1.40;;
66270;SDS011;53063;39.614;8.814;2023-04-03T03:57:42;7.13;;;1.48;;
66270;SDS011;53063;39.614;8.814;2023-04-03T04:00:09;9.00;;;1.20;;
66270;SDS011;53063;39.614;8.814;2023-04-03T04:02:44;3.25;;;0.93;;
66270;SDS011;53063;39.614;8.814;2023-04-03T04:05:15;4.53;;;1.42;;
66270;SDS011;53063;39.614;8.814;2023-04-03T04:07:41;4.57;;;1.20;;
66270;SDS011;53063;39.614;8.814;2023-04-03T04:10:07;3.92;;;0.82;;
66270;SDS011;53063;39.614;8.814;2023-04-03T04:12:34;5.70;;;1.05;;
66270;SDS011;53063;39.614;8.814;2023-04-03T04:15:01;7.72;;;1.92;;
66270;SDS011;53063;39.614;8.814;2023-04-03T04:17:28;3.63;;;1.15;;
66270;SDS011;53063;39.614;8.814;2023-04-03T04:19:54;8.20;;;1.45;;
66270;SDS011;53063;39.614;8.814;2023-04-03T04:22:20;7.80;;;1.98;;
66270;SDS011;53063;39.614;8.814;2023-04-03T04:24:46;8.35;;;1.33;;
66270;SDS011;53063;39.614;8.814;2023-04-03T04:27:13;3.50;;;1.02;;
66270;SDS011;53063;39.614;8.814;2023-04-03T04:29:39;5.60;;;1.52;;
66270;SDS011;53063;39.614;8.814;2023-04-03T04:32:07;2.90;;;0.80;;
66270;SDS011;53063;39.614;8.814;2023-04-03T04:34:34;2.50;;;0.93;;
66270;SDS011;53063;39.614;8.814;2023-04-03T04:37:01;5.22;;;1.02;;
66270;SDS011;53063;39.614;8.814;2023-04-03T04:39:27;12.90;;;1.65;;
66270;SDS011;53063;39.614;8.814;2023-04-03T04:41:55;8.20;;;1.40;;
66270;SDS011;53063;39.614;8.814;2023-04-03T04:44:23;9.73;;;1.40;;
66270;SDS011;53063;39.614;8.814;2023-04-03T04:46:49;12.40;;;1.58;;
66270;SDS011;53063;39.614;8.814;2023-04-03T04:49:15;13.07;;;1.83;;
66270;SDS011;53063;39.614;8.814;2023-04-03T04:51:41;14.38;;;1.75;;
66270;SDS011;53063;39.614;8.814;2023-04-03T04:54:08;8.23;;;1.50;;
66270;SDS011;53063;39.614;8.814;2023-04-03T04:56:35;8.93;;;1.40;;
66270;SDS011;53063;39.614;8.814;2023-04-03T04:59:01;10.68;;;1.83;;
66270;SDS011;53063;39.614;8.814;2023-04-03T05:01:27;6.68;;;1.52;;
66270;SDS011;53063;39.614;8.814;2023-04-03T05:04:00;3.70;;;0.80;;
66270;SDS011;53063;39.614;8.814;2023-04-03T05:06:26;8.77;;;1.63;;
66270;SDS011;53063;39.614;8.814;2023-04-03T05:08:54;10.00;;;1.52;;
66270;SDS011;53063;39.614;8.814;2023-04-03T05:11:21;3.58;;;1.10;;
66270;SDS011;53063;39.614;8.814;2023-04-03T05:13:49;8.50;;;1.23;;
66270;SDS011;53063;39.614;8.814;2023-04-03T05:16:16;5.13;;;1.15;;
66270;SDS011;53063;39.614;8.814;2023-04-03T05:18:42;6.70;;;1.60;;
66270;SDS011;53063;39.614;8.814;2023-04-03T05:23:41;5.05;;;1.30;;
66270;SDS011;53063;39.614;8.814;2023-04-03T05:26:08;10.18;;;1.65;;
66270;SDS011;53063;39.614;8.814;2023-04-03T05:28:34;3.53;;;1.13;;
66270;SDS011;53063;39.614;8.814;2023-04-03T05:31:01;4.25;;;1.30;;
66270;SDS011;53063;39.614;8.814;2023-04-03T05:33:33;5.63;;;1.30;;
66270;SDS011;53063;39.614;8.814;2023-04-03T05:36:03;10.23;;;1.75;;
66270;SDS011;53063;39.614;8.814;2023-04-03T05:38:32;6.18;;;1.88;;
66270;SDS011;53063;39.614;8.814;2023-04-03T05:40:58;9.73;;;2.88;;
66270;SDS011;53063;39.614;8.814;2023-04-03T05:43:24;7.60;;;2.97;;
66270;SDS011;53063;39.614;8.814;2023-04-03T05:45:52;8.02;;;2.33;;
66270;SDS011;53063;39.614;8.814;2023-04-03T05:48:19;7.55;;;1.35;;
66270;SDS011;53063;39.614;8.814;2023-04-03T05:50:46;5.43;;;1.23;;
66270;SDS011;53063;39.614;8.814;2023-04-03T05:53:22;5.20;;;1.40;;
66270;SDS011;53063;39.614;8.814;2023-04-03T05:55:53;9.40;;;1.73;;
66270;SDS011;53063;39.614;8.814;2023-04-03T05:58:19;8.15;;;1.55;;
66270;SDS011;53063;39.614;8.814;2023-04-03T06:00:47;4.50;;;1.73;;
66270;SDS011;53063;39.614;8.814;2023-04-03T06:03:14;5.88;;;2.08;;
66270;SDS011;53063;39.614;8.814;2023-04-03T06:05:41;13.13;;;1.80;;
66270;SDS011;53063;39.614;8.814;2023-04-03T06:08:10;7.18;;;1.50;;
66270;SDS011;53063;39.614;8.814;2023-04-03T06:10:36;6.45;;;1.33;;
66270;SDS011;53063;39.614;8.814;2023-04-03T06:13:02;7.00;;;2.00;;
66270;SDS011;53063;39.614;8.814;2023-04-03T06:15:28;12.40;;;1.60;;
66270;SDS011;53063;39.614;8.814;2023-04-03T06:17:54;12.27;;;2.03;;
66270;SDS011;53063;39.614;8.814;2023-04-03T06:20:20;11.65;;;4.00;;
66270;SDS011;53063;39.614;8.814;2023-04-03T06:22:47;8.55;;;2.20;;
66270;SDS011;53063;39.614;8.814;2023-04-03T06:25:13;4.57;;;1.50;;
66270;SDS011;53063;39.614;8.814;2023-04-03T06:27:42;19.45;;;2.40;;
66270;SDS011;53063;39.614;8.814;2023-04-03T06:30:08;9.20;;;1.20;;
66270;SDS011;53063;39.614;8.814;2023-04-03T06:32:34;9.80;;;1.88;;
66270;SDS011;53063;39.614;8.814;2023-04-03T06:35:00;5.82;;;1.00;;
66270;SDS011;53063;39.614;8.814;2023-04-03T06:37:26;3.58;;;1.02;;
66270;SDS011;53063;39.614;8.814;2023-04-03T06:39:54;9.65;;;1.70;;
66270;SDS011;53063;39.614;8.814;2023-04-03T06:42:20;4.97;;;1.45;;
66270;SDS011;53063;39.614;8.814;2023-04-03T06:44:58;5.00;;;1.00;;
66270;SDS011;53063;39.614;8.814;2023-04-03T06:47:25;7.65;;;1.50;;
66270;SDS011;53063;39.614;8.814;2023-04-03T06:49:51;5.90;;;1.25;;
66270;SDS011;53063;39.614;8.814;2023-04-03T06:52:17;40.65;;;16.42;;
66270;SDS011;53063;39.614;8.814;2023-04-03T06:54:43;21.35;;;9.85;;
66270;SDS011;53063;39.614;8.814;2023-04-03T06:57:09;21.27;;;7.35;;
66270;SDS011;53063;39.614;8.814;2023-04-03T06:59:35;12.05;;;4.47;;
66270;SDS011;53063;39.614;8.814;2023-04-03T07:02:02;20.92;;;7.55;;
66270;SDS011;53063;39.614;8.814;2023-04-03T07:04:28;13.95;;;4.60;;
66270;SDS011;53063;39.614;8.814;2023-04-03T07:06:54;9.80;;;2.78;;
66270;SDS011;53063;39.614;8.814;2023-04-03T07:09:19;11.20;;;4.32;;
66270;SDS011;53063;39.614;8.814;2023-04-03T07:11:46;15.52;;;7.40;;
66270;SDS011;53063;39.614;8.814;2023-04-03T07:14:12;30.27;;;9.63;;
66270;SDS011;53063;39.614;8.814;2023-04-03T07:16:38;23.02;;;8.10;;
66270;SDS011;53063;39.614;8.814;2023-04-03T07:19:04;14.30;;;5.80;;
66270;SDS011;53063;39.614;8.814;2023-04-03T07:21:30;16.85;;;4.75;;
66270;SDS011;53063;39.614;8.814;2023-04-03T07:23:55;13.63;;;3.60;;
66270;SDS011;53063;39.614;8.814;2023-04-03T07:26:23;8.95;;;2.75;;
66270;SDS011;53063;39.614;8.814;2023-04-03T07:28:49;14.75;;;5.45;;
66270;SDS011;53063;39.614;8.814;2023-04-03T07:31:16;10.63;;;3.35;;
66270;SDS011;53063;39.614;8.814;2023-04-03T07:33:43;15.63;;;5.55;;
66270;SDS011;53063;39.614;8.814;2023-04-03T07:36:12;6.57;;;1.95;;
66270;SDS011;53063;39.614;8.814;2023-04-03T07:38:41;6.75;;;1.80;;
66270;SDS011;53063;39.614;8.814;2023-04-03T07:41:07;10.77;;;2.60;;
66270;SDS011;53063;39.614;8.814;2023-04-03T07:43:40;5.10;;;2.00;;
66270;SDS011;53063;39.614;8.814;2023-04-03T07:46:07;8.85;;;2.00;;
66270;SDS011;53063;39.614;8.814;2023-04-03T07:48:34;7.25;;;1.88;;
66270;SDS011;53063;39.614;8.814;2023-04-03T07:51:01;7.57;;;1.63;;
66270;SDS011;53063;39.614;8.814;2023-04-03T07:53:28;8.35;;;2.10;;
66270;SDS011;53063;39.614;8.814;2023-04-03T07:55:54;6.65;;;1.50;;
66270;SDS011;53063;39.614;8.814;2023-04-03T07:58:22;11.98;;;3.30;;
66270;SDS011;53063;39.614;8.814;2023-04-03T08:00:48;12.55;;;3.13;;
66270;SDS011;53063;39.614;8.814;2023-04-03T08:03:14;11.35;;;1.63;;
66270;SDS011;53063;39.614;8.814;2023-04-03T08:05:44;10.27;;;2.33;;
66270;SDS011;53063;39.614;8.814;2023-04-03T08:08:12;12.27;;;1.73;;
66270;SDS011;53063;39.614;8.814;2023-04-03T08:10:41;4.88;;;1.30;;
66270;SDS011;53063;39.614;8.814;2023-04-03T08:13:08;9.32;;;1.63;;
66270;SDS011;53063;39.614;8.814;2023-04-03T08:15:34;7.80;;;1.88;;
66270;SDS011;53063;39.614;8.814;2023-04-03T08:18:00;9.20;;;2.70;;
66270;SDS011;53063;39.614;8.814;2023-04-03T08:20:27;5.85;;;2.78;;
66270;SDS011;53063;39.614;8.814;2023-04-03T08:22:53;12.77;;;3.55;;
66270;SDS011;53063;39.614;8.814;2023-04-03T08:25:20;9.45;;;1.98;;
66270;SDS011;53063;39.614;8.814;2023-04-03T08:27:46;11.27;;;3.17;;
66270;SDS011;53063;39.614;8.814;2023-04-03T08:30:12;9.88;;;2.13;;
66270;SDS011;53063;39.614;8.814;2023-04-03T08:32:38;11.70;;;2.88;;
66270;SDS011;53063;39.614;8.814;2023-04-03T08:35:07;7.18;;;2.25;;
66270;SDS011;53063;39.614;8.814;2023-04-03T08:37:36;10.73;;;2.28;;
66270;SDS011;53063;39.614;8.814;2023-04-03T08:40:03;8.38;;;1.85;;
66270;SDS011;53063;39.614;8.814;2023-04-03T08:45:25;8.32;;;2.13;;
66270;SDS011;53063;39.614;8.814;2023-04-03T08:48:12;6.80;;;2.65;;
66270;SDS011;53063;39.614;8.814;2023-04-03T08:50:45;4.40;;;1.35;;
66270;SDS011;53063;39.614;8.814;2023-04-03T08:53:16;6.47;;;1.77;;
66270;SDS011;53063;39.614;8.814;2023-04-03T08:55:47;6.88;;;1.60;;
66270;SDS011;53063;39.614;8.814;2023-04-03T08:58:19;5.22;;;1.85;;
66270;SDS011;53063;39.614;8.814;2023-04-03T09:03:17;5.13;;;1.92;;
66270;SDS011;53063;39.614;8.814;2023-04-03T09:08:17;4.35;;;1.08;;
66270;SDS011;53063;39.614;8.814;2023-04-03T09:16:36;7.65;;;1.55;;
66270;SDS011;53063;39.614;8.814;2023-04-03T09:21:54;4.68;;;1.38;;
66270;SDS011;53063;39.614;8.814;2023-04-03T09:24:23;5.90;;;1.40;;
66270;SDS011;53063;39.614;8.814;2023-04-03T09:27:00;7.88;;;1.70;;
66270;SDS011;53063;39.614;8.814;2023-04-03T09:29:33;3.47;;;1.90;;
66270;SDS011;53063;39.614;8.814;2023-04-03T09:32:12;3.70;;;1.02;;
66270;SDS011;53063;39.614;8.814;2023-04-03T09:34:43;7.00;;;1.35;;
66270;SDS011;53063;39.614;8.814;2023-04-03T09:37:09;4.32;;;1.70;;
66270;SDS011;53063;39.614;8.814;2023-04-03T09:40:04;6.72;;;1.58;;
66270;SDS011;53063;39.614;8.814;2023-04-03T09:42:30;7.70;;;1.40;;
66270;SDS011;53063;39.614;8.814;2023-04-03T09:47:28;5.45;;;1.33;;
66270;SDS011;53063;39.614;8.814;2023-04-03T09:52:43;7.00;;;2.92;;
66270;SDS011;53063;39.614;8.814;2023-04-03T09:57:39;6.65;;;2.63;;
66270;SDS011;53063;39.614;8.814;2023-04-03T10:00:06;4.85;;;1.65;;
66270;SDS011;53063;39.614;8.814;2023-04-03T10:02:44;6.90;;;3.60;;
66270;SDS011;53063;39.614;8.814;2023-04-03T10:10:44;5.30;;;1.60;;
66270;SDS011;53063;39.614;8.814;2023-04-03T10:13:13;6.03;;;1.52;;
66270;SDS011;53063;39.614;8.814;2023-04-03T10:15:55;4.32;;;1.35;;
66270;SDS011;53063;39.614;8.814;2023-04-03T10:24:36;4.10;;;1.13;;
66270;SDS011;53063;39.614;8.814;2023-04-03T10:27:36;3.38;;;1.20;;
66270;SDS011;53063;39.614;8.814;2023-04-03T10:29:45;2.20;;;1.08;;
66270;SDS011;53063;39.614;8.814;2023-04-03T10:34:48;2.28;;;0.90;;
66270;SDS011;53063;39.614;8.814;2023-04-03T10:48:35;3.25;;;0.88;;
66270;SDS011;53063;39.614;8.814;2023-04-03T10:51:55;3.33;;;1.13;;
66270;SDS011;53063;39.614;8.814;2023-04-03T10:54:32;2.58;;;1.10;;
66270;SDS011;53063;39.614;8.814;2023-04-03T10:57:04;4.07;;;2.20;;
66270;SDS011;53063;39.614;8.814;2023-04-03T10:59:49;3.13;;;1.15;;
66270;SDS011;53063;39.614;8.814;2023-04-03T11:02:24;4.65;;;1.30;;
66270;SDS011;53063;39.614;8.814;2023-04-03T11:05:18;5.22;;;1.00;;
66270;SDS011;53063;39.614;8.814;2023-04-03T11:08:05;3.35;;;1.42;;
66270;SDS011;53063;39.614;8.814;2023-04-03T11:10:42;5.20;;;1.70;;
66270;SDS011;53063;39.614;8.814;2023-04-03T11:13:55;3.05;;;1.13;;
66270;SDS011;53063;39.614;8.814;2023-04-03T11:16:07;6.40;;;1.75;;
66270;SDS011;53063;39.614;8.814;2023-04-03T11:21:52;7.20;;;1.83;;
66270;SDS011;53063;39.614;8.814;2023-04-03T11:24:02;7.32;;;1.85;;
66270;SDS011;53063;39.614;8.814;2023-04-03T11:26:38;3.05;;;1.40;;
66270;SDS011;53063;39.614;8.814;2023-04-03T11:29:12;6.85;;;1.45;;
66270;SDS011;53063;39.614;8.814;2023-04-03T11:37:21;6.40;;;1.40;;
66270;SDS011;53063;39.614;8.814;2023-04-03T11:39:59;10.82;;;2.38;;
66270;SDS011;53063;39.614;8.814;2023-04-03T11:47:57;6.88;;;1.65;;
66270;SDS011;53063;39.614;8.814;2023-04-03T11:50:43;4.90;;;1.48;;
66270;SDS011;53063;39.614;8.814;2023-04-03T11:55:43;7.57;;;1.88;;
66270;SDS011;53063;39.614;8.814;2023-04-03T12:05:52;4.00;;;1.20;;
66270;SDS011;53063;39.614;8.814;2023-04-03T12:16:21;5.18;;;1.50;;
66270;SDS011;53063;39.614;8.814;2023-04-03T12:21:23;5.72;;;1.45;;
66270;SDS011;53063;39.614;8.814;2023-04-03T12:48:54;5.53;;;1.38;;
66270;SDS011;53063;39.614;8.814;2023-04-03T12:54:30;1.77;;;0.93;;
66270;SDS011;53063;39.614;8.814;2023-04-03T12:57:16;1.75;;;0.98;;
66270;SDS011;53063;39.614;8.814;2023-04-03T12:59:42;4.18;;;1.40;;
66270;SDS011;53063;39.614;8.814;2023-04-03T13:02:32;4.95;;;1.30;;
66270;SDS011;53063;39.614;8.814;2023-04-03T13:05:02;6.72;;;1.38;;
66270;SDS011;53063;39.614;8.814;2023-04-03T13:07:33;4.93;;;1.15;;
66270;SDS011;53063;39.614;8.814;2023-04-03T13:12:33;11.45;;;1.63;;
66270;SDS011;53063;39.614;8.814;2023-04-03T13:15:01;9.27;;;1.60;;
66270;SDS011;53063;39.614;8.814;2023-04-03T13:17:38;5.70;;;1.30;;
66270;SDS011;53063;39.614;8.814;2023-04-03T13:20:17;9.65;;;1.65;;
66270;SDS011;53063;39.614;8.814;2023-04-03T13:22:53;6.20;;;1.50;;
66270;SDS011;53063;39.614;8.814;2023-04-03T13:36:30;12.47;;;2.30;;
66270;SDS011;53063;39.614;8.814;2023-04-03T13:39:22;13.35;;;1.92;;
66270;SDS011;53063;39.614;8.814;2023-04-03T13:41:57;8.20;;;1.50;;
66270;SDS011;53063;39.614;8.814;2023-04-03T13:44:41;16.95;;;2.88;;
66270;SDS011;53063;39.614;8.814;2023-04-03T13:54:57;5.13;;;1.75;;
66270;SDS011;53063;39.614;8.814;2023-04-03T13:57:25;8.13;;;1.67;;
66270;SDS011;53063;39.614;8.814;2023-04-03T13:59:52;2.80;;;1.30;;
66270;SDS011;53063;39.614;8.814;2023-04-03T14:02:32;10.35;;;2.00;;
66270;SDS011;53063;39.614;8.814;2023-04-03T14:04:59;5.13;;;1.40;;
66270;SDS011;53063;39.614;8.814;2023-04-03T14:07:27;3.55;;;0.95;;
66270;SDS011;53063;39.614;8.814;2023-04-03T14:09:56;5.75;;;1.73;;
66270;SDS011;53063;39.614;8.814;2023-04-03T14:12:26;5.15;;;1.23;;
66270;SDS011;53063;39.614;8.814;2023-04-03T14:15:01;7.88;;;1.50;;
66270;SDS011;53063;39.614;8.814;2023-04-03T14:17:43;7.22;;;1.02;;
66270;SDS011;53063;39.614;8.814;2023-04-03T14:20:13;6.22;;;1.65;;
66270;SDS011;53063;39.614;8.814;2023-04-03T14:22:42;7.18;;;2.35;;
66270;SDS011;53063;39.614;8.814;2023-04-03T14:25:08;11.85;;;2.38;;
66270;SDS011;53063;39.614;8.814;2023-04-03T14:27:45;13.45;;;1.60;;
66270;SDS011;53063;39.614;8.814;2023-04-03T14:30:14;18.33;;;2.25;;
66270;SDS011;53063;39.614;8.814;2023-04-03T14:32:45;5.57;;;1.30;;
66270;SDS011;53063;39.614;8.814;2023-04-03T14:35:12;4.30;;;1.38;;
66270;SDS011;53063;39.614;8.814;2023-04-03T14:37:39;8.25;;;1.50;;
66270;SDS011;53063;39.614;8.814;2023-04-03T14:40:06;4.15;;;1.58;;
66270;SDS011;53063;39.614;8.814;2023-04-03T14:42:36;3.95;;;1.20;;
66270;SDS011;53063;39.614;8.814;2023-04-03T14:45:04;4.93;;;1.27;;
66270;SDS011;53063;39.614;8.814;2023-04-03T14:47:31;6.10;;;1.45;;
66270;SDS011;53063;39.614;8.814;2023-04-03T14:50:01;3.95;;;1.60;;
66270;SDS011;53063;39.614;8.814;2023-04-03T14:52:30;10.05;;;4.40;;
66270;SDS011;53063;39.614;8.814;2023-04-03T14:54:59;17.60;;;5.95;;
66270;SDS011;53063;39.614;8.814;2023-04-03T14:57:28;9.23;;;2.28;;
66270;SDS011;53063;39.614;8.814;2023-04-03T14:59:55;6.10;;;1.75;;
66270;SDS011;53063;39.614;8.814;2023-04-03T15:02:28;6.00;;;1.45;;
66270;SDS011;53063;39.614;8.814;2023-04-03T15:04:55;5.15;;;1.77;;
66270;SDS011;53063;39.614;8.814;2023-04-03T15:07:22;6.13;;;1.58;;
66270;SDS011;53063;39.614;8.814;2023-04-03T15:09:50;4.38;;;0.98;;
66270;SDS011;53063;39.614;8.814;2023-04-03T15:12:16;4.43;;;1.33;;
66270;SDS011;53063;39.614;8.814;2023-04-03T15:14:43;5.85;;;1.48;;
66270;SDS011;53063;39.614;8.814;2023-04-03T15:17:12;7.55;;;2.95;;
66270;SDS011;53063;39.614;8.814;2023-04-03T15:19:42;7.15;;;2.03;;
66270;SDS011;53063;39.614;8.814;2023-04-03T15:22:15;8.20;;;2.10;;
66270;SDS011;53063;39.614;8.814;2023-04-03T15:24:44;9.98;;;1.90;;
66270;SDS011;53063;39.614;8.814;2023-04-03T15:27:11;7.68;;;2.00;;
66270;SDS011;53063;39.614;8.814;2023-04-03T15:29:39;6.88;;;1.73;;
66270;SDS011;53063;39.614;8.814;2023-04-03T15:32:06;8.73;;;1.60;;
66270;SDS011;53063;39.614;8.814;2023-04-03T15:34:34;9.93;;;1.63;;
66270;SDS011;53063;39.614;8.814;2023-04-03T15:37:00;4.90;;;1.20;;
66270;SDS011;53063;39.614;8.814;2023-04-03T15:39:26;10.10;;;1.58;;
66270;SDS011;53063;39.614;8.814;2023-04-03T15:41:52;5.20;;;1.60;;
66270;SDS011;53063;39.614;8.814;2023-04-03T15:44:19;9.48;;;2.05;;
66270;SDS011;53063;39.614;8.814;2023-04-03T15:46:46;8.35;;;1.40;;
66270;SDS011;53063;39.614;8.814;2023-04-03T15:49:16;6.60;;;1.50;;
66270;SDS011;53063;39.614;8.814;2023-04-03T15:51:44;7.82;;;1.80;;
66270;SDS011;53063;39.614;8.814;2023-04-03T15:54:10;9.10;;;2.22;;
66270;SDS011;53063;39.614;8.814;2023-04-03T15:56:37;7.57;;;2.65;;
66270;SDS011;53063;39.614;8.814;2023-04-03T15:59:03;5.85;;;1.70;;
66270;SDS011;53063;39.614;8.814;2023-04-03T16:01:29;5.72;;;1.63;;
66270;SDS011;53063;39.614;8.814;2023-04-03T16:03:55;4.38;;;1.27;;
66270;SDS011;53063;39.614;8.814;2023-04-03T16:06:22;4.70;;;1.02;;
66270;SDS011;53063;39.614;8.814;2023-04-03T16:08:50;7.70;;;1.85;;
66270;SDS011;53063;39.614;8.814;2023-04-03T16:11:16;13.68;;;2.10;;
66270;SDS011;53063;39.614;8.814;2023-04-03T16:13:42;4.05;;;1.10;;
66270;SDS011;53063;39.614;8.814;2023-04-03T16:16:08;7.05;;;2.97;;
66270;SDS011;53063;39.614;8.814;2023-04-03T16:18:35;5.85;;;2.10;;
66270;SDS011;53063;39.614;8.814;2023-04-03T16:21:01;3.45;;;1.85;;
66270;SDS011;53063;39.614;8.814;2023-04-03T16:23:27;3.83;;;1.15;;
66270;SDS011;53063;39.614;8.814;2023-04-03T16:25:53;4.18;;;1.00;;
66270;SDS011;53063;39.614;8.814;2023-04-03T16:28:19;28.42;;;2.25;;
66270;SDS011;53063;39.614;8.814;2023-04-03T16:30:45;3.33;;;1.25;;
66270;SDS011;53063;39.614;8.814;2023-04-03T16:33:12;3.22;;;1.05;;
66270;SDS011;53063;39.614;8.814;2023-04-03T16:35:39;3.78;;;1.13;;
66270;SDS011;53063;39.614;8.814;2023-04-03T16:38:07;2.85;;;1.00;;
66270;SDS011;53063;39.614;8.814;2023-04-03T16:40:33;5.47;;;1.00;;
66270;SDS011;53063;39.614;8.814;2023-04-03T16:43:00;3.47;;;1.00;;
66270;SDS011;53063;39.614;8.814;2023-04-03T16:45:27;3.78;;;1.23;;
66270;SDS011;53063;39.614;8.814;2023-04-03T16:47:53;3.75;;;0.98;;
66270;SDS011;53063;39.614;8.814;2023-04-03T16:50:19;6.40;;;1.27;;
66270;SDS011;53063;39.614;8.814;2023-04-03T16:52:45;4.55;;;1.33;;
66270;SDS011;53063;39.614;8.814;2023-04-03T16:55:12;6.18;;;1.10;;
66270;SDS011;53063;39.614;8.814;2023-04-03T16:57:37;7.53;;;1.20;;
66270;SDS011;53063;39.614;8.814;2023-04-03T17:00:04;8.02;;;1.58;;
66270;SDS011;53063;39.614;8.814;2023-04-03T17:02:31;3.63;;;1.38;;
66270;SDS011;53063;39.614;8.814;2023-04-03T17:04:57;4.93;;;1.10;;
66270;SDS011;53063;39.614;8.814;2023-04-03T17:07:23;10.50;;;1.60;;
66270;SDS011;53063;39.614;8.814;2023-04-03T17:09:50;8.20;;;1.63;;
66270;SDS011;53063;39.614;8.814;2023-04-03T17:12:18;12.60;;;1.50;;
66270;SDS011;53063;39.614;8.814;2023-04-03T17:14:45;5.65;;;1.65;;
66270;SDS011;53063;39.614;8.814;2023-04-03T17:17:12;7.88;;;2.05;;
66270;SDS011;53063;39.614;8.814;2023-04-03T17:19:43;9.47;;;2.20;;
66270;SDS011;53063;39.614;8.814;2023-04-03T17:22:10;21.77;;;2.38;;
66270;SDS011;53063;39.614;8.814;2023-04-03T17:24:36;11.80;;;2.47;;